Aeroporto :
LOGIN :

Iscrizione | Disclaimer

   EN    FR    IT 

 










Sommario :    VFR   VFR Marginale   IFR   IFR Intensivo   IFR Molto Intensivo
Visibilità : 
Base nubi : 
>= 8 km
>= 3000ft
5 / 8 km
1000 / 3000 ft
1500m / 5 km
500 / 1000 ft
800 / 1500m
200 / 500 ft
< 800m
< 200 ft
Simboli :   Temporali  Nebbia  Neve Forte  Precipitazioni Forti  Vento > 20 kt
SIGMETs :   Varie  Temporali  Ghiacco  Turbolenza  Onda orograficha  Ceneri Vulcaniche







- Altitudine del aeroporto : 645 ft
- Codice IATA : DLE
- Carte del aeroporto


LFGJ - Dole Tavaux

ULTIMO METAR :
  • 271230Z AUTO VRB01KT CAVOK 19/12 Q1012 TEMPO FEW030TCU

METARs OBSOLETI :
  • 271200Z AUTO VRB03KT CAVOK 18/12 Q1012 TEMPO FEW030TCU
  • 271130Z AUTO 30006KT 270V330 CAVOK 18/12 Q1012 TEMPO FEW030TCU
  • 271100Z AUTO 32006KT 290V350 CAVOK 18/11 Q1012 TEMPO FEW030TCU
  • 271030Z AUTO 29005KT 9999 FEW030 SCT039 OVC054 18/12 Q1012 TEMPO FEW030TCU
  • 271000Z AUTO VRB03KT 9999 FEW027 SCT032 OVC064 18/13 Q1013 TEMPO FEW030TCU

TAF TAF LFGJ
Valido dal 27 a 12 ore il 27 a 21 ore UTC


271100Z 2712/2721 31006KT 9999 SCT030 BKN055
PROB40
TEMPO 2712/2721 -SHRA FEW030TCU
Nessun NOTAM noto per questo aeroporto.



MetMap, La meteo Aeronautica in un colpo d'occhio ! - Copyright ORBIFLY Dicembre 2007 - Disclaimer

ORBIFLY MET'MAP TEAM :

Programmazione e sviluppo : Alexandra Zaïnal
Concezione e sviluppo : Baudouin d'Aumeries
Co-Programmazione e sviluppo : Marc-Olivier Méhu
Supporto tecnico e logistico : Manuel Goepfert
Aiuto per la traduzione : Arnaldo La Scala

Contatto : metmap@orbifly.com




FONTI E CREDITI :

   NOAA